createdAt,value
2023-02-23T00:01:37.286Z,100189.28
2023-02-23T00:04:04.892Z,100197.63
2023-02-23T00:06:33.645Z,100191.75
2023-02-23T00:09:01.284Z,100191.63
2023-02-23T00:11:28.348Z,100190.66
2023-02-23T00:13:56.929Z,100189.78
2023-02-23T00:16:26.053Z,100186.78
2023-02-23T00:19:00.329Z,100187.09
2023-02-23T00:21:30.440Z,100190.50
2023-02-23T00:23:59.772Z,100185.75
2023-02-23T00:26:35.155Z,100192.50
2023-02-23T00:29:17.750Z,100185.25
2023-02-23T00:31:48.734Z,100194.50
2023-02-23T00:34:21.387Z,100192.41
2023-02-23T00:36:54.250Z,100190.91
2023-02-23T00:39:22.462Z,100189.41
2023-02-23T00:41:50.050Z,100188.97
2023-02-23T00:44:16.944Z,100184.91
2023-02-23T00:46:45.262Z,100186.50
2023-02-23T00:49:13.402Z,100190.69
2023-02-23T00:51:40.006Z,100192.09
2023-02-23T00:54:07.513Z,100190.13
2023-02-23T00:56:34.491Z,100193.25
2023-02-23T00:59:01.179Z,100192.84
2023-02-23T01:01:28.013Z,100191.31
2023-02-23T01:03:54.555Z,100186.16
2023-02-23T01:06:21.462Z,100196.88
2023-02-23T01:08:50.597Z,100193.47
2023-02-23T01:11:23.401Z,100189.56
2023-02-23T01:13:53.180Z,100197.19
2023-02-23T01:16:22.231Z,100191.06
2023-02-23T01:18:49.361Z,100192.31
2023-02-23T01:21:19.452Z,100187.63
2023-02-23T01:23:46.441Z,100185.50
2023-02-23T01:26:22.122Z,100184.84
2023-02-23T01:28:50.062Z,100190.16
2023-02-23T01:31:17.346Z,100175.78
2023-02-23T01:33:44.184Z,100188.63
2023-02-23T01:36:10.673Z,100187.09
2023-02-23T01:38:37.320Z,100181.84
2023-02-23T01:41:04.072Z,100189.25
2023-02-23T01:43:30.618Z,100189.47
2023-02-23T01:45:58.147Z,100186.16
2023-02-23T01:48:34.213Z,100182.03
2023-02-23T01:51:29.117Z,100181.78
2023-02-23T01:54:09.771Z,100183.81
2023-02-23T01:56:43.398Z,100181.97
2023-02-23T01:59:12.315Z,100184.41
2023-02-23T02:01:41.928Z,100179.38
2023-02-23T02:04:16.618Z,100179.19
2023-02-23T02:06:45.810Z,100182.88
2023-02-23T02:09:19.472Z,100185.97
2023-02-23T02:11:53.945Z,100183.31
2023-02-23T02:14:29.405Z,100181.41
2023-02-23T02:17:11.177Z,100190.94
2023-02-23T02:20:14.195Z,100179.94
2023-02-23T02:22:55.593Z,100181.38
2023-02-23T02:25:53.343Z,100176.22
2023-02-23T02:28:30.737Z,100172.59
2023-02-23T02:31:16.148Z,100174.69
2023-02-23T02:34:01.424Z,100182.31
2023-02-23T02:36:43.181Z,100175.00
2023-02-23T02:39:37.934Z,100180.97
2023-02-23T02:42:21.560Z,100170.16
2023-02-23T02:44:54.437Z,100171.50
2023-02-23T02:47:45.290Z,100168.41
2023-02-23T02:50:21.936Z,100163.25
2023-02-23T02:53:00.307Z,100161.84
2023-02-23T02:55:34.281Z,100165.81
2023-02-23T02:58:03.155Z,100158.44
2023-02-23T03:00:55.170Z,100170.69
2023-02-23T03:04:00.996Z,100163.81
2023-02-23T03:06:57.469Z,100158.72
2023-02-23T03:10:02.798Z,100157.75
2023-02-23T03:13:06.590Z,100157.44
2023-02-23T03:16:26.935Z,100153.78
2023-02-23T03:19:31.016Z,100155.22
2023-02-23T03:22:42.272Z,100160.81
2023-02-23T03:25:37.189Z,100155.66
2023-02-23T03:28:32.977Z,100154.66
2023-02-23T03:31:34.989Z,100155.78
2023-02-23T03:34:36.024Z,100166.25
2023-02-23T03:37:36.512Z,100161.69
2023-02-23T03:40:27.884Z,100170.81
2023-02-23T03:43:15.662Z,100168.25
2023-02-23T03:46:04.797Z,100169.31
2023-02-23T03:48:51.653Z,100166.53
2023-02-23T03:51:38.821Z,100172.56
2023-02-23T03:54:33.880Z,100176.28
2023-02-23T03:57:22.521Z,100171.72
2023-02-23T04:00:13.380Z,100171.91
2023-02-23T04:03:01.526Z,100166.47
2023-02-23T04:05:48.614Z,100173.81
2023-02-23T04:08:38.271Z,100169.00
2023-02-23T04:11:38.301Z,100175.06
2023-02-23T04:14:10.139Z,100174.97
2023-02-23T04:16:39.425Z,100171.75
2023-02-23T04:19:06.232Z,100182.38
2023-02-23T04:21:32.925Z,100164.16
2023-02-23T04:23:59.719Z,100178.50
2023-02-23T04:26:26.175Z,100177.06
2023-02-23T04:28:52.760Z,100176.66
2023-02-23T04:31:20.647Z,100179.19
2023-02-23T04:33:48.165Z,100185.41
2023-02-23T04:36:14.791Z,100183.38
2023-02-23T04:38:41.288Z,100188.28
2023-02-23T04:41:07.784Z,100179.44
2023-02-23T04:43:34.316Z,100186.91
2023-02-23T04:46:01.474Z,100180.44
2023-02-23T04:48:28.088Z,100192.31
2023-02-23T04:50:54.819Z,100184.59
2023-02-23T04:53:21.293Z,100178.03
2023-02-23T04:55:47.730Z,100181.69
2023-02-23T04:58:14.628Z,100183.81
2023-02-23T05:00:41.960Z,100184.03
2023-02-23T05:03:08.806Z,100179.63
2023-02-23T05:05:35.314Z,100180.47
2023-02-23T05:08:01.866Z,100178.88
2023-02-23T05:10:28.926Z,100174.19
2023-02-23T05:12:55.999Z,100176.63
2023-02-23T05:15:22.541Z,100185.72
2023-02-23T05:17:49.627Z,100183.25
2023-02-23T05:20:16.323Z,100180.84
2023-02-23T05:22:42.805Z,100181.28
2023-02-23T05:25:10.121Z,100187.72
2023-02-23T05:27:36.880Z,100188.59
2023-02-23T05:30:04.714Z,100187.22
2023-02-23T05:32:31.258Z,100190.75
2023-02-23T05:34:57.779Z,100180.50
2023-02-23T05:37:24.248Z,100187.22
2023-02-23T05:39:50.837Z,100187.59
2023-02-23T05:42:17.709Z,100180.59
2023-02-23T05:44:44.516Z,100188.91
2023-02-23T05:47:11.023Z,100189.66
2023-02-23T05:49:38.399Z,100183.03
2023-02-23T05:52:05.229Z,100182.09
2023-02-23T05:54:31.749Z,100192.31
2023-02-23T05:57:00.319Z,100188.34
2023-02-23T05:59:28.089Z,100184.81
2023-02-23T06:01:54.555Z,100195.97
2023-02-23T06:04:22.461Z,100191.22
2023-02-23T06:06:49.006Z,100194.69
2023-02-23T06:09:15.575Z,100193.13
2023-02-23T06:11:42.093Z,100192.59
2023-02-23T06:14:08.631Z,100194.56
2023-02-23T06:16:35.458Z,100200.19
2023-02-23T06:19:02.212Z,100195.53
2023-02-23T06:21:28.681Z,100199.41
2023-02-23T06:23:55.418Z,100201.31
2023-02-23T06:26:22.018Z,100203.22
2023-02-23T06:28:48.626Z,100208.31
2023-02-23T06:31:15.303Z,100204.66
2023-02-23T06:33:41.935Z,100206.63
2023-02-23T06:36:08.455Z,100207.88
2023-02-23T06:38:35.154Z,100204.69
2023-02-23T06:41:09.975Z,100211.22
2023-02-23T06:43:36.584Z,100211.94
2023-02-23T06:46:04.135Z,100210.84
2023-02-23T06:48:30.677Z,100212.94
2023-02-23T06:51:00.551Z,100217.78
2023-02-23T06:53:27.550Z,100216.13
2023-02-23T06:55:54.146Z,100218.25
2023-02-23T06:58:20.827Z,100223.97
2023-02-23T07:00:47.347Z,100228.94
2023-02-23T07:03:13.971Z,100226.91
2023-02-23T07:05:40.982Z,100234.03
2023-02-23T07:08:08.062Z,100236.59
2023-02-23T07:10:35.092Z,100239.34
2023-02-23T07:13:01.837Z,100233.16
2023-02-23T07:15:28.949Z,100234.91
2023-02-23T07:17:55.523Z,100235.50
2023-02-23T07:20:22.439Z,100237.16
2023-02-23T07:22:49.076Z,100239.66
2023-02-23T07:25:15.714Z,100248.88
2023-02-23T07:27:42.322Z,100248.44
2023-02-23T07:30:09.701Z,100237.47
2023-02-23T07:32:36.360Z,100239.22
2023-02-23T07:35:04.282Z,100246.88
2023-02-23T07:37:30.823Z,100247.84
2023-02-23T07:39:59.049Z,100248.94
2023-02-23T07:42:26.893Z,100247.50
2023-02-23T07:44:53.465Z,100250.63
2023-02-23T07:47:19.987Z,100247.34
2023-02-23T07:49:46.526Z,100249.94
2023-02-23T07:52:17.038Z,100249.63
2023-02-23T07:54:43.817Z,100253.41
2023-02-23T07:57:11.255Z,100259.63
2023-02-23T07:59:39.114Z,100259.91
2023-02-23T08:02:05.847Z,100262.06
2023-02-23T08:04:32.416Z,100259.69
2023-02-23T08:06:59.482Z,100267.38
2023-02-23T08:09:25.975Z,100261.22
2023-02-23T08:11:52.482Z,100258.28
2023-02-23T08:14:21.925Z,100260.31
2023-02-23T08:16:50.559Z,100261.38
2023-02-23T08:19:18.067Z,100254.81
2023-02-23T08:21:45.207Z,100266.88
2023-02-23T08:24:11.797Z,100260.84
2023-02-23T08:26:38.912Z,100260.16
2023-02-23T08:29:05.643Z,100260.75
2023-02-23T08:31:32.687Z,100261.03
2023-02-23T08:33:59.982Z,100265.31
2023-02-23T08:36:26.551Z,100262.84
2023-02-23T08:38:56.377Z,100274.00
2023-02-23T08:41:23.026Z,100275.75
2023-02-23T08:43:49.853Z,100272.88
2023-02-23T08:46:18.692Z,100277.44
2023-02-23T08:48:46.665Z,100277.84
2023-02-23T08:51:14.669Z,100271.25
2023-02-23T08:53:41.346Z,100266.88
2023-02-23T08:56:08.609Z,100274.56
2023-02-23T08:58:36.553Z,100283.03
2023-02-23T09:01:04.368Z,100279.94
2023-02-23T09:03:31.363Z,100274.19
2023-02-23T09:06:04.548Z,100284.03
2023-02-23T09:08:31.187Z,100276.78
2023-02-23T09:10:57.722Z,100279.72
2023-02-23T09:13:24.277Z,100282.56
2023-02-23T09:15:50.864Z,100286.63
2023-02-23T09:18:18.334Z,100289.19
2023-02-23T09:20:45.389Z,100278.94
2023-02-23T09:23:13.039Z,100278.31
2023-02-23T09:25:43.911Z,100278.34
2023-02-23T09:28:19.097Z,100288.38
2023-02-23T09:30:46.872Z,100288.47
2023-02-23T09:33:14.279Z,100292.00
2023-02-23T09:35:41.356Z,100286.84
2023-02-23T09:38:08.501Z,100300.31
2023-02-23T09:40:49.716Z,100297.84
2023-02-23T09:43:17.613Z,100300.84
2023-02-23T09:46:27.161Z,100298.47
2023-02-23T09:48:56.787Z,100304.94
2023-02-23T09:51:24.102Z,100304.63
2023-02-23T09:53:56.884Z,100306.78
2023-02-23T09:56:40.834Z,100298.28
2023-02-23T09:59:13.771Z,100294.41
2023-02-23T10:01:49.309Z,100299.44
2023-02-23T10:04:39.649Z,100291.25
2023-02-23T10:07:21.312Z,100296.84
2023-02-23T10:10:22.043Z,100297.69
2023-02-23T10:13:20.005Z,100302.91
2023-02-23T10:15:57.795Z,100299.34
2023-02-23T10:18:46.803Z,100302.81
2023-02-23T10:21:21.809Z,100307.88
2023-02-23T10:23:54.168Z,100303.59
2023-02-23T10:26:25.123Z,100303.03
2023-02-23T10:28:54.075Z,100304.03
2023-02-23T10:31:43.831Z,100308.69
2023-02-23T10:34:14.968Z,100308.97
2023-02-23T10:36:46.248Z,100309.28
2023-02-23T10:39:13.505Z,100303.84
2023-02-23T10:41:41.963Z,100307.94
2023-02-23T10:44:18.342Z,100307.69
2023-02-23T10:46:47.801Z,100311.78
2023-02-23T10:49:19.505Z,100314.69
2023-02-23T10:51:46.430Z,100308.00
2023-02-23T10:54:45.639Z,100312.13
2023-02-23T10:57:20.469Z,100315.66
2023-02-23T11:00:00.739Z,100320.91
2023-02-23T11:02:30.805Z,100313.81
2023-02-23T11:04:59.682Z,100313.94
2023-02-23T11:07:29.523Z,100306.31
2023-02-23T11:09:57.768Z,100310.28
2023-02-23T11:12:37.594Z,100308.94
2023-02-23T11:15:21.855Z,100311.25
2023-02-23T11:17:55.995Z,100307.31
2023-02-23T11:20:42.419Z,100300.69
2023-02-23T11:23:14.671Z,100303.53
2023-02-23T11:25:45.012Z,100304.16
2023-02-23T11:28:41.433Z,100308.66
2023-02-23T11:31:17.487Z,100303.31
2023-02-23T11:33:45.888Z,100304.72
2023-02-23T11:36:26.662Z,100294.47
2023-02-23T11:39:07.485Z,100296.63
2023-02-23T11:41:37.173Z,100299.41
2023-02-23T11:44:06.188Z,100298.00
2023-02-23T11:46:39.047Z,100288.50
2023-02-23T11:49:17.821Z,100290.16
2023-02-23T11:51:49.081Z,100289.34
2023-02-23T11:54:25.832Z,100284.25
2023-02-23T11:56:55.204Z,100286.78
2023-02-23T11:59:32.744Z,100285.88
2023-02-23T12:02:24.835Z,100287.81
2023-02-23T12:05:17.532Z,100285.69
2023-02-23T12:07:57.041Z,100277.22
2023-02-23T12:10:29.339Z,100283.00
2023-02-23T12:13:34.765Z,100268.09
2023-02-23T12:16:33.343Z,100260.91
2023-02-23T12:19:06.516Z,100258.50
2023-02-23T12:21:39.555Z,100254.25
2023-02-23T12:24:24.940Z,100248.25
2023-02-23T12:26:58.420Z,100253.66
2023-02-23T12:29:37.742Z,100253.22
2023-02-23T12:32:14.789Z,100251.94
2023-02-23T12:34:53.640Z,100261.03
2023-02-23T12:37:31.467Z,100254.25
2023-02-23T12:40:07.233Z,100253.88
2023-02-23T12:42:52.027Z,100251.28
2023-02-23T12:45:24.805Z,100258.91
2023-02-23T12:48:12.789Z,100258.47
2023-02-23T12:50:45.669Z,100256.41
2023-02-23T12:53:19.801Z,100251.97
2023-02-23T12:56:22.980Z,100252.81
2023-02-23T12:59:20.207Z,100258.88
2023-02-23T13:02:00.776Z,100250.88
2023-02-23T13:05:05.749Z,100258.53
2023-02-23T13:07:50.865Z,100252.41
2023-02-23T13:10:29.354Z,100246.72
2023-02-23T13:13:11.705Z,100247.81
2023-02-23T13:15:55.923Z,100248.22
2023-02-23T13:18:29.730Z,100244.41
2023-02-23T13:21:07.742Z,100247.50
2023-02-23T13:23:44.697Z,100247.81
2023-02-23T13:26:39.003Z,100243.28
2023-02-23T13:29:14.688Z,100253.56
2023-02-23T13:31:42.239Z,100253.19
2023-02-23T13:34:18.560Z,100247.06
2023-02-23T13:36:45.938Z,100247.81
2023-02-23T13:39:33.642Z,100244.78
2023-02-23T13:42:26.339Z,100253.16
2023-02-23T13:44:58.535Z,100249.78
2023-02-23T13:47:25.435Z,100250.13
2023-02-23T13:50:01.720Z,100241.75
2023-02-23T13:52:38.126Z,100237.88
2023-02-23T13:55:05.411Z,100232.59
2023-02-23T13:57:32.901Z,100237.16
2023-02-23T14:00:00.558Z,100240.19
2023-02-23T14:02:31.029Z,100243.56
2023-02-23T14:05:04.742Z,100247.06
2023-02-23T14:07:33.055Z,100247.81
2023-02-23T14:10:06.623Z,100242.72
2023-02-23T14:12:42.460Z,100245.19
2023-02-23T14:15:25.130Z,100246.53
2023-02-23T14:18:03.415Z,100251.56
2023-02-23T14:20:46.160Z,100241.41
2023-02-23T14:23:28.689Z,100242.19
2023-02-23T14:26:32.778Z,100231.84
2023-02-23T14:29:25.467Z,100242.59
2023-02-23T14:32:20.728Z,100235.91
2023-02-23T14:34:59.149Z,100235.41
2023-02-23T14:37:25.702Z,100239.66
2023-02-23T14:40:01.178Z,100230.19
2023-02-23T14:42:32.961Z,100234.97
2023-02-23T14:45:07.674Z,100230.00
2023-02-23T14:47:45.924Z,100233.09
2023-02-23T14:50:24.075Z,100232.47
2023-02-23T14:52:51.656Z,100235.09
2023-02-23T14:55:29.068Z,100246.41
2023-02-23T14:57:56.213Z,100245.16
2023-02-23T15:00:33.891Z,100244.00
2023-02-23T15:03:00.412Z,100247.56
2023-02-23T15:05:45.829Z,100247.34
2023-02-23T15:08:18.760Z,100253.06
2023-02-23T15:10:47.327Z,100250.81
2023-02-23T15:13:28.801Z,100246.56
2023-02-23T15:15:57.504Z,100250.53
2023-02-23T15:18:31.016Z,100250.13
2023-02-23T15:20:57.595Z,100258.53
2023-02-23T15:23:26.640Z,100248.59
2023-02-23T15:25:53.311Z,100260.81
2023-02-23T15:28:21.474Z,100256.22
2023-02-23T15:30:49.497Z,100256.25
2023-02-23T15:33:28.594Z,100262.66
2023-02-23T15:36:07.020Z,100262.66
2023-02-23T15:38:43.759Z,100262.31
2023-02-23T15:41:37.281Z,100262.56
2023-02-23T15:44:12.555Z,100256.09
2023-02-23T15:46:41.975Z,100265.03
2023-02-23T15:49:12.594Z,100259.28
2023-02-23T15:51:51.604Z,100260.72
2023-02-23T15:54:27.108Z,100259.47
2023-02-23T15:57:01.925Z,100264.16
2023-02-23T15:59:34.641Z,100258.00
2023-02-23T16:02:03.269Z,100262.94
2023-02-23T16:04:42.462Z,100260.16
2023-02-23T16:07:20.638Z,100264.75
2023-02-23T16:10:08.560Z,100264.69
2023-02-23T16:12:39.102Z,100255.50
2023-02-23T16:15:21.093Z,100266.22
2023-02-23T16:17:53.172Z,100265.75
2023-02-23T16:20:34.632Z,100266.59
2023-02-23T16:23:02.861Z,100271.09
2023-02-23T16:25:30.718Z,100259.78
2023-02-23T16:28:18.390Z,100266.75
2023-02-23T16:30:58.367Z,100270.94
2023-02-23T16:33:28.487Z,100265.94
2023-02-23T16:36:10.411Z,100274.31
2023-02-23T16:38:41.671Z,100264.63
2023-02-23T16:41:19.480Z,100272.63
2023-02-23T16:43:48.862Z,100276.09
2023-02-23T16:46:20.171Z,100274.47
2023-02-23T16:48:47.159Z,100279.13
2023-02-23T16:51:18.604Z,100279.06
2023-02-23T16:53:46.294Z,100274.69
2023-02-23T16:56:16.401Z,100276.88
2023-02-23T16:58:46.801Z,100281.34
2023-02-23T17:01:14.671Z,100277.50
2023-02-23T17:03:52.469Z,100278.25
2023-02-23T17:06:20.412Z,100276.66
2023-02-23T17:08:56.212Z,100280.09
2023-02-23T17:11:24.694Z,100277.66
2023-02-23T17:13:52.294Z,100275.53
2023-02-23T17:16:19.668Z,100291.50
2023-02-23T17:18:46.552Z,100288.38
2023-02-23T17:21:14.690Z,100287.44
2023-02-23T17:23:51.392Z,100284.53
2023-02-23T17:26:20.953Z,100290.63
2023-02-23T17:28:47.847Z,100290.31
2023-02-23T17:31:16.292Z,100286.03
2023-02-23T17:33:44.189Z,100291.66
2023-02-23T17:36:13.879Z,100285.94
2023-02-23T17:38:44.823Z,100289.41
2023-02-23T17:41:18.216Z,100294.16
2023-02-23T17:43:45.092Z,100283.88
2023-02-23T17:46:12.648Z,100292.53
2023-02-23T17:48:40.756Z,100299.38
2023-02-23T17:51:09.625Z,100298.38
2023-02-23T17:53:36.642Z,100301.19
2023-02-23T17:56:03.604Z,100304.28
2023-02-23T17:58:30.635Z,100307.13
2023-02-23T18:00:59.709Z,100304.78
2023-02-23T18:03:31.861Z,100305.72
2023-02-23T18:05:59.487Z,100305.63
2023-02-23T18:08:26.101Z,100303.50
2023-02-23T18:10:54.410Z,100302.38
2023-02-23T18:13:21.916Z,100306.22
2023-02-23T18:15:53.775Z,100300.63
2023-02-23T18:18:22.100Z,100299.66
2023-02-23T18:20:51.031Z,100303.34
2023-02-23T18:23:18.331Z,100297.66
2023-02-23T18:25:44.862Z,100296.50
2023-02-23T18:28:12.461Z,100295.72
2023-02-23T18:30:41.109Z,100291.19
2023-02-23T18:33:08.930Z,100292.47
2023-02-23T18:35:41.036Z,100291.75
2023-02-23T18:38:11.572Z,100282.84
2023-02-23T18:40:39.023Z,100282.81
2023-02-23T18:43:06.380Z,100278.78
2023-02-23T18:45:33.767Z,100275.94
2023-02-23T18:48:00.345Z,100275.34
2023-02-23T18:50:27.253Z,100282.25
2023-02-23T18:52:56.010Z,100272.44
2023-02-23T18:55:23.567Z,100270.41
2023-02-23T18:57:52.842Z,100276.81
2023-02-23T19:00:20.240Z,100278.69
2023-02-23T19:02:47.596Z,100279.91
2023-02-23T19:05:18.169Z,100274.31
2023-02-23T19:07:45.722Z,100271.59
2023-02-23T19:10:14.957Z,100274.41
2023-02-23T19:12:41.836Z,100273.84
2023-02-23T19:15:09.143Z,100257.28
2023-02-23T19:17:36.343Z,100270.03
2023-02-23T19:20:07.900Z,100269.66
2023-02-23T19:22:34.804Z,100272.56
2023-02-23T19:25:01.314Z,100267.72
2023-02-23T19:27:28.067Z,100267.28
2023-02-23T19:29:54.555Z,100274.97
2023-02-23T19:32:21.175Z,100273.22
2023-02-23T19:34:48.009Z,100274.63
2023-02-23T19:37:14.628Z,100266.25
2023-02-23T19:39:41.267Z,100269.09
2023-02-23T19:42:09.170Z,100277.94
2023-02-23T19:44:35.899Z,100264.03
2023-02-23T19:47:02.576Z,100260.56
2023-02-23T19:49:29.187Z,100260.97
2023-02-23T19:51:57.629Z,100264.56
2023-02-23T19:54:26.271Z,100278.41
2023-02-23T19:56:53.311Z,100277.72
2023-02-23T19:59:19.953Z,100281.53
2023-02-23T20:01:46.535Z,100282.22
2023-02-23T20:04:13.154Z,100284.59
2023-02-23T20:06:44.843Z,100281.81
2023-02-23T20:09:11.795Z,100282.47
2023-02-23T20:11:38.463Z,100287.44
2023-02-23T20:14:07.446Z,100294.03
2023-02-23T20:16:35.508Z,100294.28
2023-02-23T20:19:03.647Z,100297.06
2023-02-23T20:21:32.513Z,100294.13
2023-02-23T20:24:01.450Z,100299.47
2023-02-23T20:26:33.990Z,100306.22
2023-02-23T20:29:01.449Z,100299.69
2023-02-23T20:31:35.022Z,100298.59
2023-02-23T20:34:06.801Z,100305.97
2023-02-23T20:36:33.553Z,100304.25
2023-02-23T20:39:00.216Z,100313.03
2023-02-23T20:41:31.484Z,100316.34
2023-02-23T20:44:01.010Z,100312.56
2023-02-23T20:46:30.534Z,100308.47
2023-02-23T20:48:59.358Z,100310.28
2023-02-23T20:51:27.059Z,100311.78
2023-02-23T20:53:53.873Z,100302.69
2023-02-23T20:56:21.982Z,100305.47
2023-02-23T20:58:48.634Z,100304.66
2023-02-23T21:01:18.689Z,100310.78
2023-02-23T21:03:46.440Z,100306.22
2023-02-23T21:06:15.960Z,100304.16
2023-02-23T21:08:42.621Z,100309.84
2023-02-23T21:11:09.166Z,100302.47
2023-02-23T21:13:36.515Z,100300.06
2023-02-23T21:16:03.447Z,100307.66
2023-02-23T21:18:31.170Z,100303.56
2023-02-23T21:21:07.054Z,100307.97
2023-02-23T21:23:33.603Z,100302.78
2023-02-23T21:26:07.035Z,100302.53
2023-02-23T21:28:33.952Z,100303.56
2023-02-23T21:31:00.505Z,100303.50
2023-02-23T21:33:27.162Z,100311.41
2023-02-23T21:35:58.594Z,100301.50
2023-02-23T21:38:25.702Z,100301.75
2023-02-23T21:40:52.290Z,100302.41
2023-02-23T21:43:19.093Z,100305.22
2023-02-23T21:45:49.046Z,100300.03
2023-02-23T21:48:15.894Z,100304.63
2023-02-23T21:50:42.406Z,100297.25
2023-02-23T21:53:09.679Z,100299.25
2023-02-23T21:55:40.062Z,100299.09
2023-02-23T21:58:07.351Z,100297.34
2023-02-23T22:00:35.820Z,100297.16
2023-02-23T22:03:03.270Z,100299.59
2023-02-23T22:05:29.928Z,100293.84
2023-02-23T22:07:56.585Z,100292.53
2023-02-23T22:10:24.106Z,100290.91
2023-02-23T22:12:56.668Z,100291.13
2023-02-23T22:15:33.329Z,100287.16
2023-02-23T22:18:00.106Z,100288.47
2023-02-23T22:20:26.657Z,100285.25
2023-02-23T22:22:53.181Z,100289.13
2023-02-23T22:25:20.269Z,100289.75
2023-02-23T22:27:46.929Z,100292.41
2023-02-23T22:30:14.909Z,100296.63
2023-02-23T22:32:42.590Z,100295.25
2023-02-23T22:35:10.966Z,100294.94
2023-02-23T22:37:38.742Z,100292.06
2023-02-23T22:40:13.346Z,100296.44
2023-02-23T22:42:39.903Z,100292.50
2023-02-23T22:45:07.116Z,100297.91
2023-02-23T22:47:34.880Z,100294.50
2023-02-23T22:50:01.519Z,100289.84
2023-02-23T22:52:29.996Z,100287.63
2023-02-23T22:54:56.608Z,100276.47
2023-02-23T22:57:23.487Z,100287.47
2023-02-23T23:00:00.501Z,100281.50
2023-02-23T23:02:32.155Z,100286.34
2023-02-23T23:05:01.828Z,100287.59
2023-02-23T23:07:30.868Z,100281.41
2023-02-23T23:09:58.551Z,100281.72
2023-02-23T23:12:27.944Z,100279.31
2023-02-23T23:15:01.211Z,100283.66
2023-02-23T23:17:31.854Z,100272.94
2023-02-23T23:20:00.231Z,100272.97
2023-02-23T23:22:27.509Z,100275.63
2023-02-23T23:24:54.089Z,100267.44
2023-02-23T23:27:21.441Z,100270.91
2023-02-23T23:29:48.720Z,100282.81
2023-02-23T23:32:18.474Z,100271.63
2023-02-23T23:34:48.158Z,100272.72
2023-02-23T23:37:19.732Z,100270.25
2023-02-23T23:39:46.526Z,100261.66
2023-02-23T23:42:13.578Z,100267.47
2023-02-23T23:44:40.170Z,100262.06
2023-02-23T23:47:06.961Z,100259.00
2023-02-23T23:49:38.340Z,100252.44
2023-02-23T23:52:05.454Z,100258.50
2023-02-23T23:54:42.279Z,100252.44
2023-02-23T23:57:11.301Z,100252.28
2023-02-23T23:59:45.593Z,100241.13
